Time;durP1;ratioP1;P1;durP2;ratioP2;P2;SDS_P1;SDS_P2;PMS_P1;PMS_P2;Temp;Humidity;BMP_temperature;BMP_pressure;BME280_temperature;BME280_humidity;BME280_pressure;Samples;Min_cycle;Max_cycle;Signal;HPM_P1;HPM_P2
2022/11/20 00:02:16;;;;;;;5.68;3.05;;;12.70;83.80;;;;;;5047345;28;20025;-78
2022/11/20 00:04:41;;;;;;;5.85;3.13;;;12.70;83.00;;;;;;5038903;28;20021;-78
2022/11/20 00:07:07;;;;;;;5.10;3.72;;;12.70;83.20;;;;;;5047590;28;20183;-78
2022/11/20 00:09:33;;;;;;;8.15;3.65;;;12.70;82.80;;;;;;5036204;28;20104;-78
2022/11/20 00:11:58;;;;;;;5.90;3.28;;;12.70;83.00;;;;;;5039791;28;20140;-77
2022/11/20 00:14:24;;;;;;;5.15;3.65;;;12.70;83.10;;;;;;5037220;28;20033;-77
2022/11/20 00:16:50;;;;;;;5.50;3.33;;;12.70;83.10;;;;;;5044022;28;20033;-77
2022/11/20 00:19:15;;;;;;;4.88;3.20;;;12.80;83.10;;;;;;5032578;28;20025;-77
2022/11/20 00:21:41;;;;;;;5.35;3.70;;;12.80;82.90;;;;;;5046606;28;20029;-77
2022/11/20 00:24:10;;;;;;;5.47;3.47;;;12.80;82.80;;;;;;5042816;28;20372;-77
2022/11/20 00:26:36;;;;;;;5.32;3.70;;;12.80;82.80;;;;;;5036646;28;20450;-77
2022/11/20 00:29:02;;;;;;;7.93;3.30;;;12.80;82.80;;;;;;5046430;28;20071;-77
2022/11/20 00:31:28;;;;;;;4.80;3.15;;;12.80;82.70;;;;;;5034858;28;20038;-77
2022/11/20 00:33:54;;;;;;;4.18;3.05;;;12.80;82.30;;;;;;5032768;28;20458;-77
2022/11/20 00:36:23;;;;;;;3.72;3.03;;;12.70;82.60;;;;;;5043743;28;20044;-77
2022/11/20 00:38:53;;;;;;;4.07;2.83;;;12.70;82.90;;;;;;5031149;28;20037;-77
2022/11/20 00:41:19;;;;;;;3.60;3.03;;;12.60;82.90;;;;;;5043876;28;20033;-77
2022/11/20 00:43:44;;;;;;;4.25;3.13;;;12.60;82.80;;;;;;5046035;28;20040;-77
2022/11/20 00:46:16;;;;;;;4.38;3.10;;;12.60;82.50;;;;;;5033497;28;20068;-77
2022/11/20 00:48:43;;;;;;;3.22;2.45;;;12.60;82.20;;;;;;5044359;28;20033;-77
2022/11/20 00:51:10;;;;;;;5.28;2.90;;;12.60;82.50;;;;;;5025509;28;20033;-77
2022/11/20 00:53:36;;;;;;;4.45;3.47;;;12.50;82.30;;;;;;5032796;28;20050;-78
2022/11/20 00:56:06;;;;;;;3.65;2.78;;;12.50;82.10;;;;;;5040282;28;20069;-78
2022/11/20 00:58:39;;;;;;;4.38;2.67;;;12.50;82.60;;;;;;5052560;28;20037;-77
2022/11/20 01:01:20;;;;;;;5.43;3.35;;;12.60;82.70;;;;;;5034516;28;21901;-77
2022/11/20 01:03:49;;;;;;;;;;;12.50;81.90;;;;;;5045178;28;20147;-77
2022/11/20 01:06:17;;;;;;;3.95;2.65;;;12.50;82.00;;;;;;5034535;28;19909;-78
2022/11/20 01:08:44;;;;;;;3.45;2.45;;;12.40;82.50;;;;;;5036772;28;20486;-77
2022/11/20 01:11:13;;;;;;;3.47;2.30;;;12.20;82.30;;;;;;5040210;28;20025;-76
2022/11/20 01:13:39;;;;;;;4.03;2.67;;;12.30;82.70;;;;;;5030461;28;20037;-76
2022/11/20 01:16:10;;;;;;;2.63;2.15;;;12.30;82.60;;;;;;5041584;28;20029;-77
2022/11/20 01:18:38;;;;;;;2.83;2.00;;;12.40;82.20;;;;;;5039068;28;20503;-77
2022/11/20 01:21:09;;;;;;;2.97;2.30;;;12.40;81.80;;;;;;5047699;28;20083;-78
2022/11/20 01:23:38;;;;;;;2.63;1.92;;;12.40;81.60;;;;;;5034824;28;20046;-77
2022/11/20 01:26:25;;;;;;;2.45;1.90;;;12.40;81.80;;;;;;5040499;28;20025;-77
2022/11/20 01:28:51;;;;;;;2.42;1.90;;;12.50;82.10;;;;;;5042853;28;20065;-77
2022/11/20 01:31:31;;;;;;;2.20;1.55;;;12.50;82.10;;;;;;5047255;28;20037;-77
2022/11/20 01:34:00;;;;;;;2.47;1.77;;;12.60;81.30;;;;;;5037763;28;20044;-77
2022/11/20 01:36:28;;;;;;;6.32;1.67;;;12.60;81.00;;;;;;5042022;28;20029;-77
2022/11/20 01:38:56;;;;;;;1.45;1.30;;;12.60;80.40;;;;;;5034252;28;20037;-77
2022/11/20 01:44:10;;;;;;;1.50;1.00;;;12.60;79.70;;;;;;5025229;28;20053;-77
2022/11/20 01:46:38;;;;;;;1.35;1.10;;;12.60;80.40;;;;;;5049931;28;20056;-77
2022/11/20 01:49:31;;;;;;;1.15;1.05;;;12.70;80.80;;;;;;5046423;28;20048;-77
2022/11/20 01:52:04;;;;;;;1.15;1.00;;;12.80;80.60;;;;;;5045237;28;20176;-77
2022/11/20 01:54:38;;;;;;;1.10;1.00;;;12.80;80.40;;;;;;5033645;28;20099;-78
2022/11/20 01:57:09;;;;;;;1.58;0.93;;;12.90;80.20;;;;;;5053072;28;20064;-78
2022/11/20 01:59:39;;;;;;;1.05;0.90;;;12.90;80.00;;;;;;5042878;28;20072;-78
2022/11/20 02:02:05;;;;;;;;;;;13.00;79.70;;;;;;5053568;28;20040;-77
2022/11/20 02:04:30;;;;;;;1.83;1.20;;;13.00;79.00;;;;;;5042863;28;19908;-78
2022/11/20 02:07:00;;;;;;;3.95;0.82;;;13.00;79.30;;;;;;5054578;28;20037;-77
2022/11/20 02:09:28;;;;;;;0.98;0.80;;;13.00;79.40;;;;;;5049350;28;20516;-78
2022/11/20 02:11:55;;;;;;;1.25;0.90;;;13.10;79.30;;;;;;5045352;28;20114;-77
2022/11/20 02:14:22;;;;;;;1.23;0.93;;;13.10;79.20;;;;;;5050447;28;20500;-77
2022/11/20 02:16:49;;;;;;;1.48;0.90;;;13.00;79.20;;;;;;5052812;28;20037;-77
2022/11/20 02:19:23;;;;;;;1.45;1.17;;;13.10;79.40;;;;;;5041212;28;20539;-78
2022/11/20 02:22:01;;;;;;;0.90;0.80;;;13.10;79.20;;;;;;5050219;28;20436;-78
2022/11/20 02:24:26;;;;;;;0.98;0.82;;;13.10;79.10;;;;;;5046238;28;20033;-78
2022/11/20 02:26:57;;;;;;;1.55;1.10;;;13.10;79.00;;;;;;5046623;28;20052;-77
2022/11/20 02:29:39;;;;;;;1.10;0.93;;;13.10;78.90;;;;;;5036505;28;20029;-77
2022/11/20 02:32:05;;;;;;;1.63;1.00;;;13.10;78.90;;;;;;5047671;28;20033;-77
2022/11/20 02:34:31;;;;;;;1.58;1.15;;;13.10;78.50;;;;;;5052374;28;20059;-77
2022/11/20 02:36:57;;;;;;;1.05;0.80;;;13.10;78.70;;;;;;5045002;28;20037;-77
2022/11/20 02:39:25;;;;;;;1.55;1.10;;;13.10;78.60;;;;;;5046753;28;20049;-77
2022/11/20 02:41:53;;;;;;;1.52;0.93;;;13.10;78.20;;;;;;5049243;28;20025;-77
2022/11/20 02:44:19;;;;;;;1.33;1.05;;;13.10;78.10;;;;;;5042612;28;20473;-77
2022/11/20 02:46:45;;;;;;;2.95;1.38;;;13.10;78.10;;;;;;5036084;28;20071;-77
2022/11/20 02:49:11;;;;;;;2.47;1.50;;;13.10;78.30;;;;;;5041873;28;20465;-77
2022/11/20 02:51:37;;;;;;;1.25;1.00;;;13.10;78.30;;;;;;5039961;28;20450;-78
2022/11/20 02:54:03;;;;;;;2.00;1.23;;;13.20;78.60;;;;;;5046486;28;20036;-78
2022/11/20 02:56:29;;;;;;;1.00;0.90;;;13.10;78.50;;;;;;5044097;28;20029;-78
2022/11/20 02:58:55;;;;;;;2.22;1.17;;;13.10;78.60;;;;;;5039409;28;20033;-78
2022/11/20 03:01:21;;;;;;;1.55;1.00;;;13.10;78.60;;;;;;5050995;28;20025;-77
2022/11/20 03:03:48;;;;;;;1.63;1.00;;;13.10;78.60;;;;;;5051051;28;20451;-77
2022/11/20 03:06:15;;;;;;;1.90;1.05;;;13.10;78.60;;;;;;5054276;28;20500;-79
2022/11/20 03:08:41;;;;;;;2.67;1.23;;;13.10;78.50;;;;;;5047118;28;20035;-79
2022/11/20 03:11:07;;;;;;;2.03;1.00;;;13.00;78.40;;;;;;5029188;28;20029;-79
2022/11/20 03:13:33;;;;;;;1.00;0.90;;;13.00;78.20;;;;;;5048674;28;20033;-79
2022/11/20 03:16:12;;;;;;;2.03;1.00;;;13.00;78.50;;;;;;5045693;28;20029;-79
2022/11/20 03:18:40;;;;;;;0.77;0.70;;;13.00;78.70;;;;;;5025137;28;20120;-79
2022/11/20 03:21:06;;;;;;;1.27;1.08;;;13.00;78.60;;;;;;5041771;28;20033;-79
2022/11/20 03:23:32;;;;;;;1.20;0.93;;;13.00;78.70;;;;;;5047854;28;20049;-78
2022/11/20 03:26:11;;;;;;;1.40;1.00;;;13.00;78.60;;;;;;5053437;28;20040;-79
2022/11/20 03:28:38;;;;;;;1.75;0.98;;;13.00;78.80;;;;;;5048912;28;20091;-77
2022/11/20 03:31:12;;;;;;;1.35;0.93;;;13.00;78.90;;;;;;5039146;28;20060;-78
2022/11/20 03:33:39;;;;;;;2.40;1.08;;;13.00;79.00;;;;;;5050807;28;20039;-78
2022/11/20 03:36:06;;;;;;;0.88;0.80;;;13.00;78.90;;;;;;5044442;28;20112;-79
2022/11/20 03:38:32;;;;;;;0.90;0.82;;;13.00;78.60;;;;;;5046203;28;20404;-79
2022/11/20 03:41:03;;;;;;;1.33;1.08;;;13.00;78.80;;;;;;5046222;28;20029;-79
2022/11/20 03:43:29;;;;;;;1.63;0.80;;;13.00;78.90;;;;;;5043817;28;20439;-79
2022/11/20 03:45:55;;;;;;;1.00;0.80;;;13.00;78.90;;;;;;5033257;28;20061;-78
2022/11/20 03:48:21;;;;;;;1.92;1.00;;;12.90;78.90;;;;;;5042311;28;20029;-78
2022/11/20 03:50:47;;;;;;;1.70;0.98;;;12.90;79.20;;;;;;5047476;28;20059;-78
2022/11/20 03:53:14;;;;;;;1.60;1.00;;;12.90;79.40;;;;;;5022423;28;20453;-78
2022/11/20 03:55:40;;;;;;;2.17;1.10;;;12.90;79.50;;;;;;5045469;28;20064;-79
2022/11/20 03:58:05;;;;;;;1.00;0.90;;;12.90;79.30;;;;;;5033492;28;20072;-79
2022/11/20 04:00:31;;;;;;;1.83;0.90;;;12.80;79.30;;;;;;5039142;28;20028;-79
2022/11/20 04:03:00;;;;;;;1.48;1.10;;;12.80;79.30;;;;;;5034201;28;20466;-78
2022/11/20 04:05:26;;;;;;;1.60;1.00;;;12.80;79.50;;;;;;5053131;28;20052;-78
2022/11/20 04:07:51;;;;;;;1.63;0.90;;;12.80;79.60;;;;;;5025361;28;20439;-78
2022/11/20 04:10:17;;;;;;;0.95;0.75;;;12.80;79.70;;;;;;5050704;28;20033;-79
2022/11/20 04:12:43;;;;;;;2.08;0.93;;;12.80;79.70;;;;;;5033830;28;20462;-79
2022/11/20 04:15:09;;;;;;;1.40;0.95;;;12.80;79.70;;;;;;5037455;28;20402;-79
2022/11/20 04:17:34;;;;;;;1.25;0.80;;;12.80;79.80;;;;;;5037126;28;20067;-79
2022/11/20 04:20:01;;;;;;;1.02;0.63;;;12.80;79.90;;;;;;5040415;28;20060;-79
2022/11/20 04:22:26;;;;;;;1.77;0.90;;;12.70;79.80;;;;;;5047069;28;20084;-79
2022/11/20 04:24:52;;;;;;;2.08;0.93;;;12.70;79.90;;;;;;5048077;28;20500;-79
2022/11/20 04:27:17;;;;;;;0.95;0.63;;;12.70;80.00;;;;;;5050222;28;20465;-79
2022/11/20 04:29:43;;;;;;;0.73;0.60;;;12.70;79.90;;;;;;5045493;28;20029;-79
2022/11/20 04:32:09;;;;;;;0.88;0.75;;;12.70;79.90;;;;;;5051199;28;20033;-79
2022/11/20 04:34:34;;;;;;;1.00;0.77;;;12.70;80.00;;;;;;5039163;28;20049;-79
2022/11/20 04:37:00;;;;;;;1.27;0.60;;;12.70;80.00;;;;;;5041990;28;20040;-80
2022/11/20 04:39:26;;;;;;;2.90;0.85;;;12.70;80.00;;;;;;5047050;28;20450;-79
2022/11/20 04:44:36;;;;;;;3.08;1.08;;;12.60;79.80;;;;;;5032056;28;20133;-78
2022/11/20 04:47:01;;;;;;;1.17;0.60;;;12.50;79.80;;;;;;5029586;28;20120;-78
2022/11/20 04:49:27;;;;;;;2.03;1.08;;;12.50;80.20;;;;;;5032105;28;20444;-78
2022/11/20 04:51:53;;;;;;;1.20;0.73;;;12.40;80.20;;;;;;5034214;28;20438;-78
2022/11/20 04:54:20;;;;;;;1.33;0.60;;;12.40;80.40;;;;;;5038172;28;20029;-79
2022/11/20 04:56:47;;;;;;;1.58;1.00;;;12.30;80.60;;;;;;5052383;28;20025;-79
2022/11/20 04:59:13;;;;;;;1.83;0.75;;;12.30;80.70;;;;;;5043425;28;20430;-77
2022/11/20 05:01:39;;;;;;;1.25;0.80;;;12.30;80.90;;;;;;5040005;28;20054;-77
2022/11/20 05:04:05;;;;;;;0.70;0.57;;;12.30;81.00;;;;;;5038552;28;20068;-78
2022/11/20 05:06:31;;;;;;;1.52;0.90;;;12.30;81.00;;;;;;5030521;28;20060;-78
2022/11/20 05:08:58;;;;;;;1.80;0.70;;;12.40;81.00;;;;;;5036858;28;20542;-77
2022/11/20 05:11:24;;;;;;;1.17;0.70;;;12.40;81.20;;;;;;5035985;28;20029;-77
2022/11/20 05:13:51;;;;;;;0.90;0.60;;;12.40;81.00;;;;;;5041087;28;20033;-77
2022/11/20 05:16:19;;;;;;;1.15;0.70;;;12.40;81.00;;;;;;5037193;28;20034;-77
2022/11/20 05:18:46;;;;;;;2.03;0.80;;;12.40;81.00;;;;;;5046565;28;20048;-77
2022/11/20 05:21:12;;;;;;;1.30;0.80;;;12.30;81.10;;;;;;5045199;28;20486;-78
2022/11/20 05:23:38;;;;;;;1.00;0.77;;;12.20;81.20;;;;;;5035366;28;20377;-78
2022/11/20 05:26:05;;;;;;;1.63;1.00;;;12.20;81.50;;;;;;5039652;28;20044;-78
2022/11/20 05:28:32;;;;;;;3.60;0.70;;;12.10;81.60;;;;;;5036817;28;20029;-77
2022/11/20 05:31:06;;;;;;;0.90;0.70;;;12.10;81.70;;;;;;5036065;28;20033;-78
2022/11/20 05:33:33;;;;;;;0.70;0.70;;;12.10;82.00;;;;;;5040026;28;20473;-78
2022/11/20 05:35:59;;;;;;;1.30;0.80;;;12.10;82.10;;;;;;5045729;28;20025;-79
2022/11/20 05:38:24;;;;;;;2.00;0.90;;;12.00;82.20;;;;;;5043161;28;20458;-79
2022/11/20 05:40:50;;;;;;;1.45;0.82;;;12.00;82.20;;;;;;5049008;28;20104;-79
2022/11/20 05:43:16;;;;;;;4.40;1.15;;;12.00;82.20;;;;;;5043918;28;20068;-79
2022/11/20 05:45:41;;;;;;;1.42;0.80;;;11.90;82.60;;;;;;5047912;28;20041;-79
2022/11/20 05:48:07;;;;;;;1.20;0.77;;;11.90;82.30;;;;;;5041656;28;20428;-79
2022/11/20 05:50:32;;;;;;;1.13;0.80;;;11.90;82.80;;;;;;5037217;28;20030;-79
2022/11/20 05:52:59;;;;;;;1.58;1.00;;;11.80;82.70;;;;;;5042372;28;20034;-78
2022/11/20 05:55:26;;;;;;;1.40;1.02;;;11.80;82.80;;;;;;5031622;28;20041;-79
2022/11/20 05:57:53;;;;;;;2.40;1.30;;;11.70;82.90;;;;;;5055059;28;20031;-79
2022/11/20 06:00:19;;;;;;;1.67;1.10;;;11.70;83.20;;;;;;5035662;28;20018;-78
2022/11/20 06:02:45;;;;;;;1.50;1.20;;;11.60;83.20;;;;;;5037373;28;20025;-77
2022/11/20 06:05:10;;;;;;;2.22;1.50;;;11.60;83.30;;;;;;5059510;28;20505;-77
2022/11/20 06:07:36;;;;;;;2.78;1.40;;;11.60;83.40;;;;;;5042321;28;20037;-78
2022/11/20 06:10:02;;;;;;;1.77;1.67;;;11.50;83.50;;;;;;5034012;28;20025;-78
2022/11/20 06:12:28;;;;;;;1.60;1.40;;;11.40;83.60;;;;;;5044256;28;20033;-78
2022/11/20 06:14:53;;;;;;;2.03;1.63;;;11.50;83.80;;;;;;5046694;28;20036;-78
2022/11/20 06:17:19;;;;;;;1.75;1.60;;;11.60;83.90;;;;;;5036861;28;20022;-78
2022/11/20 06:19:44;;;;;;;3.47;1.95;;;11.60;83.90;;;;;;5035730;28;20052;-78
2022/11/20 06:22:10;;;;;;;1.98;1.48;;;11.70;83.70;;;;;;5053635;28;20025;-77
2022/11/20 06:24:36;;;;;;;3.50;1.63;;;11.60;83.40;;;;;;5032735;28;20382;-77
2022/11/20 06:27:01;;;;;;;2.58;1.85;;;11.70;83.60;;;;;;5017557;28;20477;-78
2022/11/20 06:29:27;;;;;;;3.15;2.08;;;11.60;83.60;;;;;;5034588;28;20043;-77
2022/11/20 06:31:53;;;;;;;2.90;1.75;;;11.50;83.70;;;;;;5039637;28;20021;-77
2022/11/20 06:34:19;;;;;;;3.58;2.40;;;11.50;83.90;;;;;;5050382;28;20047;-78
2022/11/20 06:36:44;;;;;;;3.08;1.77;;;11.50;84.00;;;;;;5043941;28;20385;-78
2022/11/20 06:39:10;;;;;;;2.58;1.85;;;11.40;84.00;;;;;;5033866;28;20038;-78
2022/11/20 06:41:35;;;;;;;5.13;2.00;;;11.40;84.40;;;;;;5048315;28;20083;-79
2022/11/20 06:44:03;;;;;;;2.22;1.85;;;11.30;84.30;;;;;;5036341;28;20040;-77
2022/11/20 06:46:28;;;;;;;2.22;1.80;;;11.30;84.60;;;;;;5036451;28;20067;-78
2022/11/20 06:48:54;;;;;;;2.58;2.00;;;11.30;84.50;;;;;;5043942;28;20450;-78
2022/11/20 06:51:21;;;;;;;2.35;1.80;;;11.40;84.60;;;;;;5050004;28;20035;-83
2022/11/20 06:53:46;;;;;;;4.95;1.90;;;11.40;84.50;;;;;;5033066;28;20432;-83
2022/11/20 06:56:12;;;;;;;3.95;2.20;;;11.40;84.30;;;;;;5042142;28;20041;-83
2022/11/20 06:58:38;;;;;;;2.70;2.15;;;11.40;84.10;;;;;;5036690;28;20426;-82
2022/11/20 07:01:12;;;;;;;3.40;1.92;;;11.40;84.10;;;;;;5045078;28;20126;-82
2022/11/20 07:03:38;;;;;;;4.25;2.10;;;11.40;84.10;;;;;;5036989;28;20462;-82
2022/11/20 07:06:04;;;;;;;2.42;1.92;;;11.40;84.20;;;;;;5044715;28;20037;-83
2022/11/20 07:08:31;;;;;;;3.22;1.98;;;11.50;84.10;;;;;;5040891;28;20033;-80
2022/11/20 07:11:01;;;;;;;2.63;2.15;;;11.50;84.10;;;;;;5026873;28;20025;-80
2022/11/20 07:13:28;;;;;;;3.13;2.00;;;11.40;83.70;;;;;;5041077;28;20104;-80
2022/11/20 07:15:54;;;;;;;2.30;2.10;;;11.40;83.80;;;;;;5044562;28;20463;-81
2022/11/20 07:18:19;;;;;;;5.38;2.47;;;11.40;84.00;;;;;;5032533;28;20040;-80
2022/11/20 07:20:45;;;;;;;3.25;2.08;;;11.40;84.30;;;;;;5035319;28;20366;-79
2022/11/20 07:23:11;;;;;;;2.75;1.90;;;11.50;84.60;;;;;;5041149;28;20044;-79
2022/11/20 07:25:36;;;;;;;3.15;2.17;;;11.50;84.70;;;;;;5045376;28;20112;-79
2022/11/20 07:28:03;;;;;;;3.00;2.03;;;11.60;84.70;;;;;;5039004;28;20037;-79
2022/11/20 07:30:30;;;;;;;4.85;2.83;;;11.70;84.70;;;;;;5041768;28;20028;-78
2022/11/20 07:32:56;;;;;;;4.28;2.67;;;11.70;84.40;;;;;;5062066;28;20040;-76
2022/11/20 07:35:23;;;;;;;4.57;2.92;;;11.80;84.00;;;;;;5053498;28;20029;-77
2022/11/20 07:37:50;;;;;;;4.07;2.80;;;11.80;83.30;;;;;;5033954;28;20029;-78
2022/11/20 07:40:17;;;;;;;4.07;2.92;;;11.70;83.40;;;;;;5033538;28;20087;-77
2022/11/20 07:42:54;;;;;;;3.33;2.63;;;11.70;83.50;;;;;;5023104;28;20307;-77
2022/11/20 07:45:21;;;;;;;3.63;2.70;;;11.70;83.50;;;;;;5041616;28;20045;-78
2022/11/20 07:47:46;;;;;;;4.78;2.78;;;11.70;83.40;;;;;;5049468;28;20056;-79
2022/11/20 07:50:13;;;;;;;3.75;2.90;;;11.70;83.50;;;;;;5047493;28;20108;-82
2022/11/20 07:52:40;;;;;;;3.05;2.42;;;11.70;83.50;;;;;;5041325;28;20457;-82
2022/11/20 07:55:06;;;;;;;3.17;2.47;;;11.70;83.60;;;;;;5054363;28;20056;-82
2022/11/20 07:57:32;;;;;;;3.10;2.60;;;11.70;83.80;;;;;;5041432;28;20047;-81
2022/11/20 07:59:57;;;;;;;3.45;2.78;;;11.80;83.80;;;;;;5045450;28;20487;-81
2022/11/20 08:02:23;;;;;;;3.85;2.83;;;11.70;83.30;;;;;;5048404;28;20040;-80
2022/11/20 08:04:49;;;;;;;3.60;2.50;;;11.70;83.30;;;;;;5038557;28;20039;-80
2022/11/20 08:07:15;;;;;;;3.50;2.65;;;11.80;83.40;;;;;;5048868;28;20028;-80
2022/11/20 08:09:41;;;;;;;2.83;2.33;;;11.90;83.50;;;;;;5034294;28;20084;-80
2022/11/20 08:14:51;;;;;;;4.30;2.42;;;11.90;83.30;;;;;;5033123;28;20130;-80
2022/11/20 08:17:17;;;;;;;4.22;2.75;;;12.00;83.20;;;;;;5030631;28;20114;-80
2022/11/20 08:19:42;;;;;;;3.85;3.00;;;12.10;83.10;;;;;;5015709;28;20150;-80
2022/11/20 08:22:08;;;;;;;4.25;3.25;;;12.10;83.20;;;;;;5032993;28;20037;-80
2022/11/20 08:24:33;;;;;;;4.25;2.97;;;12.20;83.20;;;;;;5045688;28;20042;-80
2022/11/20 08:26:59;;;;;;;4.03;2.90;;;12.20;83.20;;;;;;5035972;28;20039;-80
2022/11/20 08:29:26;;;;;;;5.70;3.03;;;12.30;83.10;;;;;;5044440;28;20044;-80
2022/11/20 08:31:52;;;;;;;5.65;3.30;;;12.50;83.20;;;;;;5058091;28;20084;-79
2022/11/20 08:34:18;;;;;;;4.78;3.05;;;12.60;83.10;;;;;;5063627;28;20108;-80
2022/11/20 08:36:43;;;;;;;4.78;3.13;;;12.80;82.80;;;;;;5041067;28;20091;-80
2022/11/20 08:39:12;;;;;;;5.32;3.17;;;12.90;82.40;;;;;;5067369;28;20056;-80
2022/11/20 08:41:38;;;;;;;4.97;3.45;;;13.00;81.90;;;;;;5048235;28;20056;-79
2022/11/20 08:44:06;;;;;;;4.72;3.17;;;13.10;81.80;;;;;;5050774;28;20067;-81
2022/11/20 08:46:37;;;;;;;3.72;3.03;;;13.10;81.40;;;;;;5065968;28;20079;-81
2022/11/20 08:49:04;;;;;;;4.20;3.25;;;13.10;81.20;;;;;;5068544;28;20432;-81
2022/11/20 08:51:47;;;;;;;4.32;3.25;;;13.10;80.80;;;;;;5069044;28;20153;-82
2022/11/20 08:54:13;;;;;;;4.80;3.35;;;13.10;80.90;;;;;;5048107;28;20040;-81
2022/11/20 08:56:39;;;;;;;4.30;3.17;;;13.10;80.80;;;;;;5048301;28;20031;-79
2022/11/20 08:59:04;;;;;;;4.60;3.50;;;13.20;81.10;;;;;;5069152;28;20423;-79
2022/11/20 09:01:30;;;;;;;4.35;2.88;;;13.20;81.20;;;;;;5068528;28;20020;-78
2022/11/20 09:03:56;;;;;;;4.47;3.33;;;13.30;81.20;;;;;;5065011;28;20032;-79
2022/11/20 09:06:22;;;;;;;4.97;3.67;;;13.30;80.70;;;;;;5065010;28;20029;-79
2022/11/20 09:08:53;;;;;;;6.43;3.63;;;13.30;80.60;;;;;;5065455;28;20547;-79
2022/11/20 09:11:18;;;;;;;5.25;3.00;;;13.30;80.80;;;;;;5070011;28;20035;-79
2022/11/20 09:13:44;;;;;;;5.65;3.53;;;13.40;80.80;;;;;;5052130;28;20025;-81
2022/11/20 09:16:10;;;;;;;4.63;3.30;;;13.40;80.30;;;;;;5067174;28;20028;-82
2022/11/20 09:18:37;;;;;;;5.20;3.53;;;13.50;80.40;;;;;;5069784;28;20032;-81
2022/11/20 09:21:05;;;;;;;5.25;3.78;;;13.50;80.00;;;;;;5059306;28;20024;-81
2022/11/20 09:23:34;;;;;;;8.23;3.90;;;13.50;80.10;;;;;;5068170;28;20024;-81
2022/11/20 09:26:02;;;;;;;4.95;3.55;;;13.60;80.40;;;;;;5059194;28;20055;-81
2022/11/20 09:28:28;;;;;;;4.07;3.17;;;13.70;80.30;;;;;;5047185;28;20144;-81
2022/11/20 09:30:54;;;;;;;4.90;3.85;;;13.80;80.10;;;;;;5039724;28;20104;-81
2022/11/20 09:33:19;;;;;;;4.10;3.00;;;13.90;79.60;;;;;;5021992;28;20037;-81
2022/11/20 09:35:45;;;;;;;4.25;2.80;;;13.90;79.00;;;;;;5042111;28;20033;-81
2022/11/20 09:38:11;;;;;;;4.20;2.92;;;13.90;79.00;;;;;;5025649;28;20037;-81
2022/11/20 09:40:43;;;;;;;3.13;2.67;;;14.00;78.90;;;;;;5018687;28;20446;-81
2022/11/20 09:43:25;;;;;;;3.72;2.90;;;14.00;78.00;;;;;;5044337;28;20033;-81
2022/11/20 09:46:03;;;;;;;3.47;2.67;;;14.10;77.90;;;;;;5041396;28;20051;-79
2022/11/20 09:48:50;;;;;;;3.63;2.65;;;14.10;77.30;;;;;;5045215;28;20458;-78
2022/11/20 09:51:36;;;;;;;3.15;2.83;;;14.10;77.70;;;;;;5042238;28;20037;-78
2022/11/20 09:54:27;;;;;;;4.13;3.03;;;14.20;77.10;;;;;;5048632;28;20073;-77
2022/11/20 09:57:11;;;;;;;3.92;3.20;;;14.30;77.40;;;;;;5035126;28;20089;-77
2022/11/20 09:59:50;;;;;;;5.18;2.70;;;14.40;76.90;;;;;;5036257;28;20089;-78
2022/11/20 10:02:40;;;;;;;5.28;2.50;;;14.50;77.00;;;;;;5034397;28;20034;-78
2022/11/20 10:05:24;;;;;;;3.08;2.35;;;14.60;76.40;;;;;;5038325;28;20029;-78
2022/11/20 10:07:59;;;;;;;3.53;2.85;;;14.70;75.30;;;;;;5023958;28;20025;-77
2022/11/20 10:10:45;;;;;;;2.85;2.10;;;14.80;73.80;;;;;;5045227;28;20025;-78
2022/11/20 10:13:20;;;;;;;3.17;2.53;;;15.00;74.80;;;;;;5036905;28;20111;-77
2022/11/20 10:15:52;;;;;;;3.78;2.70;;;15.10;73.80;;;;;;5041073;28;20032;-77
2022/11/20 10:18:32;;;;;;;4.32;2.72;;;15.10;74.20;;;;;;5041047;28;20481;-77
2022/11/20 10:21:39;;;;;;;3.22;2.13;;;15.30;72.60;;;;;;5043431;28;20104;-81
2022/11/20 10:24:11;;;;;;;2.30;1.30;;;15.60;73.60;;;;;;5041158;28;20036;-81
2022/11/20 10:26:48;;;;;;;1.50;1.23;;;15.80;73.10;;;;;;5043719;28;20040;-81
2022/11/20 10:29:17;;;;;;;1.25;0.82;;;16.10;73.00;;;;;;5043289;28;20457;-81
2022/11/20 10:31:50;;;;;;;1.77;1.35;;;16.30;70.00;;;;;;5038809;28;20029;-82
2022/11/20 10:34:47;;;;;;;1.75;1.15;;;16.40;69.60;;;;;;5051942;28;20082;-81
2022/11/20 10:37:26;;;;;;;2.08;1.30;;;16.50;67.90;;;;;;5040690;28;20036;-82
2022/11/20 10:40:19;;;;;;;2.13;1.48;;;16.50;69.90;;;;;;5035545;28;20465;-81
2022/11/20 10:43:05;;;;;;;1.83;1.30;;;16.60;70.10;;;;;;5046391;28;20025;-82
2022/11/20 10:45:39;;;;;;;5.57;2.30;;;16.70;69.50;;;;;;5022372;28;20029;-89
2022/11/20 10:48:20;;;;;;;2.08;1.42;;;16.70;69.20;;;;;;5041442;28;20385;-88
2022/11/20 10:51:18;;;;;;;1.98;1.20;;;16.70;69.00;;;;;;5034636;28;20034;-87
2022/11/20 10:54:11;;;;;;;1.90;1.20;;;16.70;68.80;;;;;;5034167;28;21711;-88
2022/11/20 10:56:45;;;;;;;1.73;1.40;;;16.90;69.00;;;;;;5042682;28;20032;-88
2022/11/20 10:59:31;;;;;;;2.22;1.48;;;17.10;68.90;;;;;;5048701;28;20032;-86
2022/11/20 11:01:56;;;;;;;2.00;1.20;;;17.30;68.90;;;;;;5034901;28;20021;-89
2022/11/20 11:04:28;;;;;;;2.25;1.38;;;17.50;68.00;;;;;;5039681;28;20036;-87
2022/11/20 11:07:12;;;;;;;2.15;1.30;;;17.70;68.00;;;;;;5042198;28;20036;-91
2022/11/20 11:09:43;;;;;;;2.72;1.50;;;17.90;67.30;;;;;;5045512;28;20370;-82
2022/11/20 11:12:09;;;;;;;2.70;1.98;;;18.20;67.00;;;;;;5036898;28;20044;-82
2022/11/20 11:14:43;;;;;;;2.30;1.52;;;18.40;66.40;;;;;;5037424;28;20112;-82
2022/11/20 11:17:23;;;;;;;4.43;1.50;;;18.60;66.00;;;;;;5040515;28;20112;-82
2022/11/20 11:20:10;;;;;;;2.15;1.60;;;18.60;65.10;;;;;;5039372;28;20099;-81
2022/11/20 11:22:49;;;;;;;1.90;1.45;;;19.00;65.10;;;;;;5042764;28;20026;-81
2022/11/20 11:25:33;;;;;;;1.30;1.20;;;19.20;64.20;;;;;;5043725;28;20489;-81
2022/11/20 11:28:04;;;;;;;2.30;1.70;;;19.70;64.10;;;;;;5036950;28;20029;-82
2022/11/20 11:30:42;;;;;;;2.40;1.77;;;20.30;62.30;;;;;;5034845;28;20362;-82
2022/11/20 11:33:11;;;;;;;2.08;1.50;;;21.30;60.30;;;;;;5041190;28;20030;-81
2022/11/20 11:35:52;;;;;;;1.95;1.75;;;22.40;58.20;;;;;;5053736;28;20038;-81
2022/11/20 11:38:42;;;;;;;4.05;1.80;;;23.70;55.70;;;;;;5038579;28;20617;-81
2022/11/20 11:41:25;;;;;;;1.98;1.70;;;25.00;53.60;;;;;;5040148;28;20529;-82
2022/11/20 11:46:52;;;;;;;3.40;1.80;;;26.20;43.90;;;;;;5036339;28;20091;-82
2022/11/20 11:49:19;;;;;;;2.20;1.80;;;26.60;43.80;;;;;;5047656;28;20029;-82
2022/11/20 11:52:16;;;;;;;2.20;1.67;;;26.90;44.70;;;;;;5038103;28;20032;-81
2022/11/20 11:54:59;;;;;;;1.65;1.48;;;27.40;41.50;;;;;;5037294;28;20069;-81
2022/11/20 11:57:52;;;;;;;2.85;1.75;;;27.30;42.80;;;;;;5047098;28;20113;-81
2022/11/20 12:00:20;;;;;;;2.95;1.33;;;27.60;43.00;;;;;;5057475;28;20140;-82
2022/11/20 12:02:45;;;;;;;1.48;1.38;;;28.00;42.20;;;;;;5056461;28;20040;-81
2022/11/20 12:05:17;;;;;;;1.50;1.20;;;28.30;41.10;;;;;;5037435;28;20016;-81
2022/11/20 12:07:53;;;;;;;1.45;1.13;;;28.50;40.90;;;;;;5033342;28;20030;-84
2022/11/20 12:10:19;;;;;;;1.33;1.10;;;28.70;40.10;;;;;;5040936;28;20366;-84
2022/11/20 12:12:49;;;;;;;0.70;0.68;;;28.90;39.10;;;;;;5041398;28;20037;-81
2022/11/20 12:15:28;;;;;;;2.53;0.90;;;29.10;38.00;;;;;;5039866;28;20057;-81
2022/11/20 12:17:54;;;;;;;1.83;1.00;;;29.10;38.10;;;;;;5038255;28;20100;-78
2022/11/20 12:20:25;;;;;;;1.15;0.73;;;29.00;38.00;;;;;;5035418;28;20049;-80
2022/11/20 12:23:14;;;;;;;0.95;0.75;;;28.90;37.70;;;;;;5031780;28;20051;-82
2022/11/20 12:25:43;;;;;;;0.95;0.70;;;28.70;37.50;;;;;;5015226;28;20106;-80
2022/11/20 12:28:15;;;;;;;1.02;0.93;;;28.50;38.20;;;;;;5036340;28;20044;-82
2022/11/20 12:31:10;;;;;;;1.52;0.90;;;28.30;38.50;;;;;;5041563;28;20029;-84
2022/11/20 12:33:53;;;;;;;0.70;0.68;;;28.00;38.00;;;;;;5024836;28;20033;-80
2022/11/20 12:36:37;;;;;;;0.68;0.60;;;27.80;37.60;;;;;;5035994;28;20045;-84
2022/11/20 12:39:26;;;;;;;1.20;0.80;;;27.50;37.50;;;;;;5031146;28;20033;-80
2022/11/20 12:45:31;;;;;;;0.80;0.60;;;27.20;37.40;;;;;;5032333;28;20056;-80
2022/11/20 12:48:22;;;;;;;1.45;0.60;;;27.20;37.50;;;;;;5019906;28;20029;-80
2022/11/20 12:50:50;;;;;;;2.33;1.10;;;27.20;38.00;;;;;;5042540;28;20533;-80
2022/11/20 12:53:29;;;;;;;3.50;0.75;;;27.20;37.60;;;;;;5031862;28;20505;-80
2022/11/20 12:56:22;;;;;;;0.70;0.70;;;27.20;37.80;;;;;;5046142;28;20130;-80
2022/11/20 12:59:09;;;;;;;1.33;0.90;;;27.10;37.50;;;;;;5033859;28;20533;-83
2022/11/20 13:01:40;;;;;;;1.00;0.88;;;27.10;38.10;;;;;;5040877;28;20458;-84
2022/11/20 13:04:21;;;;;;;1.13;0.80;;;27.00;38.80;;;;;;5034228;28;20075;-84
2022/11/20 13:06:47;;;;;;;1.10;0.90;;;26.60;37.60;;;;;;5038669;28;20069;-84
2022/11/20 13:09:17;;;;;;;1.05;0.95;;;25.90;37.60;;;;;;5051689;28;20025;-83
2022/11/20 13:11:55;;;;;;;1.63;0.90;;;25.20;38.50;;;;;;5039206;28;20017;-83
2022/11/20 13:14:27;;;;;;;1.35;1.05;;;24.40;39.50;;;;;;5043779;28;20132;-83
2022/11/20 13:17:11;;;;;;;0.70;0.70;;;23.70;40.90;;;;;;5046014;28;20108;-83
2022/11/20 13:19:37;;;;;;;1.48;1.00;;;23.10;42.60;;;;;;5041111;28;20029;-84